createdAt,value
2022-10-09T00:00:32.543Z,102224.63
2022-10-09T00:02:04.611Z,102214.97
2022-10-09T00:03:38.224Z,102219.34
2022-10-09T00:05:09.728Z,102209.72
2022-10-09T00:06:41.309Z,102226.44
2022-10-09T00:08:12.891Z,102220.34
2022-10-09T00:09:44.337Z,102216.00
2022-10-09T00:11:16.863Z,102219.50
2022-10-09T00:12:48.853Z,102225.59
2022-10-09T00:14:20.544Z,102224.72
2022-10-09T00:15:52.008Z,102226.50
2022-10-09T00:17:23.420Z,102224.72
2022-10-09T00:18:56.884Z,102216.88
2022-10-09T00:20:28.311Z,102216.94
2022-10-09T00:21:59.732Z,102221.38
2022-10-09T00:23:31.517Z,102220.56
2022-10-09T00:25:03.053Z,102216.16
2022-10-09T00:26:34.545Z,102219.66
2022-10-09T00:28:06.202Z,102215.28
2022-10-09T00:29:37.678Z,102222.31
2022-10-09T00:31:10.148Z,102220.59
2022-10-09T00:32:41.706Z,102218.94
2022-10-09T00:34:14.900Z,102218.19
2022-10-09T00:35:46.361Z,102216.50
2022-10-09T00:37:17.812Z,102216.44
2022-10-09T00:38:49.395Z,102224.31
2022-10-09T00:40:20.995Z,102216.41
2022-10-09T00:41:52.507Z,102225.19
2022-10-09T00:43:38.496Z,102219.97
2022-10-09T00:45:17.257Z,102219.06
2022-10-09T00:46:50.740Z,102214.78
2022-10-09T00:48:22.600Z,102216.53
2022-10-09T00:49:58.759Z,102209.53
2022-10-09T00:51:31.135Z,102211.28
2022-10-09T00:53:03.542Z,102212.16
2022-10-09T00:54:38.311Z,102222.66
2022-10-09T00:56:09.819Z,102211.25
2022-10-09T00:57:41.783Z,102216.47
2022-10-09T00:59:14.048Z,102210.34
2022-10-09T01:00:45.637Z,102210.34
2022-10-09T01:02:17.432Z,102212.97
2022-10-09T01:03:49.189Z,102214.72
2022-10-09T01:05:25.357Z,102218.22
2022-10-09T01:07:03.575Z,102226.19
2022-10-09T01:08:38.213Z,102229.72
2022-10-09T01:10:17.291Z,102225.31
2022-10-09T01:11:51.612Z,102225.31
2022-10-09T01:13:25.185Z,102220.06
2022-10-09T01:14:59.318Z,102220.94
2022-10-09T01:16:33.130Z,102213.97
2022-10-09T01:18:06.846Z,102211.34
2022-10-09T01:19:50.110Z,102216.63
2022-10-09T01:21:25.217Z,102214.84
2022-10-09T01:23:20.722Z,102214.81
2022-10-09T01:24:56.186Z,102220.09
2022-10-09T01:26:45.603Z,102218.34
2022-10-09T01:28:19.384Z,102214.84
2022-10-09T01:29:54.095Z,102213.19
2022-10-09T01:31:27.639Z,102211.50
2022-10-09T01:32:59.327Z,102213.28
2022-10-09T01:34:31.701Z,102211.53
2022-10-09T01:36:04.369Z,102215.91
2022-10-09T01:37:36.867Z,102212.41
2022-10-09T01:39:11.173Z,102208.09
2022-10-09T01:40:42.964Z,102208.16
2022-10-09T01:42:15.469Z,102203.78
2022-10-09T01:43:48.309Z,102208.13
2022-10-09T01:45:19.833Z,102208.16
2022-10-09T01:46:51.493Z,102209.91
2022-10-09T01:48:24.910Z,102208.13
2022-10-09T01:49:59.362Z,102205.50
2022-10-09T01:51:36.496Z,102203.75
2022-10-09T01:53:09.502Z,102204.63
2022-10-09T01:54:48.433Z,102201.19
2022-10-09T01:56:22.017Z,102204.69
2022-10-09T01:57:57.502Z,102198.56
2022-10-09T01:59:30.929Z,102194.19
2022-10-09T02:01:05.913Z,102198.56
2022-10-09T02:02:38.342Z,102188.00
2022-10-09T02:04:10.765Z,102193.28
2022-10-09T02:05:42.802Z,102193.28
2022-10-09T02:07:14.367Z,102187.16
2022-10-09T02:08:49.915Z,102189.78
2022-10-09T02:10:22.029Z,102188.03
2022-10-09T02:11:55.523Z,102180.16
2022-10-09T02:13:27.433Z,102185.53
2022-10-09T02:15:00.236Z,102178.53
2022-10-09T02:16:37.567Z,102183.81
2022-10-09T02:18:11.247Z,102177.72
2022-10-09T02:19:43.786Z,102182.13
2022-10-09T02:21:23.254Z,102181.28
2022-10-09T02:22:55.614Z,102178.66
2022-10-09T02:24:27.610Z,102176.94
2022-10-09T02:25:59.122Z,102175.16
2022-10-09T02:27:31.400Z,102169.00
2022-10-09T02:29:03.680Z,102176.88
2022-10-09T02:30:44.367Z,102182.13
2022-10-09T02:32:16.487Z,102186.50
2022-10-09T02:33:54.341Z,102180.41
2022-10-09T02:35:25.927Z,102182.16
2022-10-09T02:36:58.082Z,102179.56
2022-10-09T02:38:30.563Z,102176.94
2022-10-09T02:40:03.272Z,102172.56
2022-10-09T02:41:37.575Z,102173.44
2022-10-09T02:43:08.991Z,102176.94
2022-10-09T02:44:40.592Z,102171.75
2022-10-09T02:46:13.540Z,102175.28
2022-10-09T02:47:45.011Z,102184.91
2022-10-09T02:49:16.472Z,102177.06
2022-10-09T02:50:47.975Z,102183.19
2022-10-09T02:52:19.456Z,102177.97
2022-10-09T02:53:51.377Z,102179.72
2022-10-09T02:55:22.905Z,102182.31
2022-10-09T02:56:54.294Z,102176.19
2022-10-09T02:58:25.705Z,102182.34
2022-10-09T02:59:57.139Z,102182.34
2022-10-09T03:01:29.963Z,102178.03
2022-10-09T03:03:01.454Z,102173.66
2022-10-09T03:04:32.922Z,102174.53
2022-10-09T03:06:06.419Z,102176.28
2022-10-09T03:07:37.864Z,102182.38
2022-10-09T03:09:09.349Z,102163.16
2022-10-09T03:10:40.965Z,102175.41
2022-10-09T03:12:12.486Z,102173.66
2022-10-09T03:13:43.917Z,102175.41
2022-10-09T03:15:15.769Z,102175.44
2022-10-09T03:16:48.576Z,102174.53
2022-10-09T03:18:20.250Z,102171.91
2022-10-09T03:19:51.672Z,102174.53
2022-10-09T03:21:24.498Z,102168.41
2022-10-09T03:22:56.416Z,102178.94
2022-10-09T03:24:27.828Z,102181.59
2022-10-09T03:26:00.192Z,102171.13
2022-10-09T03:27:31.657Z,102174.63
2022-10-09T03:29:03.872Z,102172.91
2022-10-09T03:30:36.110Z,102175.59
2022-10-09T03:32:09.050Z,102160.72
2022-10-09T03:33:40.991Z,102169.50
2022-10-09T03:35:12.701Z,102170.38
2022-10-09T03:36:44.149Z,102168.63
2022-10-09T03:38:15.639Z,102163.41
2022-10-09T03:39:47.112Z,102163.41
2022-10-09T03:41:18.817Z,102160.78
2022-10-09T03:42:50.730Z,102153.78
2022-10-09T03:44:22.333Z,102159.00
2022-10-09T03:45:53.812Z,102154.63
2022-10-09T03:47:26.580Z,102152.88
2022-10-09T03:48:58.094Z,102151.13
2022-10-09T03:50:29.499Z,102150.28
2022-10-09T03:52:00.995Z,102152.03
2022-10-09T03:53:32.484Z,102150.28
2022-10-09T03:55:04.476Z,102152.03
2022-10-09T03:56:35.943Z,102149.47
2022-10-09T03:58:08.556Z,102147.72
2022-10-09T03:59:40.027Z,102156.41
2022-10-09T04:01:11.601Z,102161.66
2022-10-09T04:02:44.629Z,102162.59
2022-10-09T04:04:16.187Z,102161.72
2022-10-09T04:05:47.797Z,102162.59
2022-10-09T04:07:19.217Z,102150.38
2022-10-09T04:08:50.695Z,102160.88
2022-10-09T04:10:22.145Z,102160.00
2022-10-09T04:11:53.580Z,102172.25
2022-10-09T04:13:25.004Z,102167.06
2022-10-09T04:14:56.436Z,102161.81
2022-10-09T04:16:27.930Z,102158.34
2022-10-09T04:18:00.739Z,102161.84
2022-10-09T04:19:32.178Z,102154.84
2022-10-09T04:21:03.692Z,102157.47
2022-10-09T04:22:35.114Z,102160.06
2022-10-09T04:24:08.490Z,102160.06
2022-10-09T04:25:39.950Z,102162.69
2022-10-09T04:27:11.384Z,102160.94
2022-10-09T04:28:43.565Z,102160.06
2022-10-09T04:30:15.132Z,102157.44
2022-10-09T04:31:46.599Z,102160.97
2022-10-09T04:33:19.464Z,102143.47
2022-10-09T04:34:50.915Z,102162.72
2022-10-09T04:36:22.387Z,102150.53
2022-10-09T04:37:53.825Z,102150.56
2022-10-09T04:39:25.259Z,102143.56
2022-10-09T04:40:56.872Z,102144.44
2022-10-09T04:42:28.307Z,102143.56
2022-10-09T04:43:59.749Z,102148.78
2022-10-09T04:45:31.354Z,102141.81
2022-10-09T04:47:02.895Z,102143.56
2022-10-09T04:48:38.954Z,102150.53
2022-10-09T04:50:10.441Z,102143.53
2022-10-09T04:51:43.705Z,102142.63
2022-10-09T04:53:15.352Z,102145.28
2022-10-09T04:54:46.795Z,102147.91
2022-10-09T04:56:19.376Z,102145.28
2022-10-09T04:57:50.781Z,102132.19
2022-10-09T04:59:22.232Z,102138.31
2022-10-09T05:00:53.714Z,102136.59
2022-10-09T05:02:25.238Z,102134.91
2022-10-09T05:03:58.067Z,102137.53
2022-10-09T05:05:31.481Z,102141.91
2022-10-09T05:07:02.905Z,102132.28
2022-10-09T05:08:35.049Z,102131.41
2022-10-09T05:10:06.865Z,102131.41
2022-10-09T05:11:42.441Z,102128.78
2022-10-09T05:13:14.607Z,102133.13
2022-10-09T05:14:46.073Z,102138.41
2022-10-09T05:16:19.489Z,102134.03
2022-10-09T05:17:51.196Z,102126.19
2022-10-09T05:19:24.045Z,102130.53
2022-10-09T05:20:55.462Z,102127.03
2022-10-09T05:22:26.947Z,102126.16
2022-10-09T05:23:58.415Z,102133.16
2022-10-09T05:25:30.143Z,102133.16
2022-10-09T05:27:01.566Z,102129.69
2022-10-09T05:28:33.771Z,102125.34
2022-10-09T05:30:06.332Z,102125.34
2022-10-09T05:31:37.947Z,102128.81
2022-10-09T05:33:09.408Z,102132.31
2022-10-09T05:34:42.212Z,102133.22
2022-10-09T05:36:14.053Z,102129.72
2022-10-09T05:37:45.725Z,102131.47
2022-10-09T05:39:17.175Z,102133.22
2022-10-09T05:40:52.458Z,102123.63
2022-10-09T05:42:23.914Z,102135.88
2022-10-09T05:43:55.674Z,102129.75
2022-10-09T05:45:27.165Z,102129.75
2022-10-09T05:46:58.709Z,102124.50
2022-10-09T05:48:30.141Z,102125.38
2022-10-09T05:50:03.133Z,102137.66
2022-10-09T05:51:35.493Z,102142.03
2022-10-09T05:53:06.969Z,102135.03
2022-10-09T05:54:38.443Z,102128.91
2022-10-09T05:56:10.987Z,102141.16
2022-10-09T05:57:42.399Z,102128.06
2022-10-09T05:59:15.055Z,102128.06
2022-10-09T06:00:46.636Z,102133.25
2022-10-09T06:02:18.213Z,102132.38
2022-10-09T06:03:50.893Z,102128.88
2022-10-09T06:05:23.822Z,102128.00
2022-10-09T06:06:55.317Z,102128.88
2022-10-09T06:08:26.880Z,102131.53
2022-10-09T06:09:58.385Z,102136.78
2022-10-09T06:11:31.620Z,102130.66
2022-10-09T06:13:03.117Z,102139.41
2022-10-09T06:14:34.666Z,102135.88
2022-10-09T06:16:06.398Z,102134.97
2022-10-09T06:17:37.837Z,102134.97
2022-10-09T06:19:11.932Z,102133.22
2022-10-09T06:20:53.895Z,102139.28
2022-10-09T06:22:25.381Z,102141.91
2022-10-09T06:23:58.095Z,102137.53
2022-10-09T06:25:29.581Z,102147.13
2022-10-09T06:27:01.243Z,102145.31
2022-10-09T06:28:33.508Z,102139.19
2022-10-09T06:30:05.409Z,102142.69
2022-10-09T06:31:36.891Z,102140.06
2022-10-09T06:33:08.385Z,102144.44
2022-10-09T06:34:39.905Z,102144.44
2022-10-09T06:36:13.341Z,102136.53
2022-10-09T06:37:44.825Z,102137.38
2022-10-09T06:39:16.291Z,102135.63
2022-10-09T06:40:47.726Z,102145.22
2022-10-09T06:42:19.199Z,102136.44
2022-10-09T06:44:01.583Z,102135.59
2022-10-09T06:45:36.499Z,102139.06
2022-10-09T06:47:07.949Z,102134.69
2022-10-09T06:48:40.046Z,102139.03
2022-10-09T06:50:11.496Z,102148.63
2022-10-09T06:51:44.345Z,102141.59
2022-10-09T06:53:15.820Z,102138.91
2022-10-09T06:54:47.286Z,102142.38
2022-10-09T06:56:20.014Z,102135.31
2022-10-09T06:57:51.465Z,102133.53
2022-10-09T06:59:22.895Z,102136.19
2022-10-09T07:01:02.034Z,102149.25
2022-10-09T07:02:33.720Z,102143.09
2022-10-09T07:04:09.335Z,102148.25
2022-10-09T07:05:41.137Z,102146.50
2022-10-09T07:07:13.965Z,102149.06
2022-10-09T07:08:46.436Z,102144.69
2022-10-09T07:10:20.599Z,102140.31
2022-10-09T07:11:55.774Z,102151.66
2022-10-09T07:13:29.419Z,102142.91
2022-10-09T07:15:00.968Z,102146.41
2022-10-09T07:16:33.233Z,102139.38
2022-10-09T07:18:05.013Z,102137.56
2022-10-09T07:19:36.499Z,102136.66
2022-10-09T07:21:08.602Z,102138.38
2022-10-09T07:22:41.414Z,102142.75
2022-10-09T07:24:13.326Z,102137.47
2022-10-09T07:25:44.856Z,102142.66
2022-10-09T07:27:16.602Z,102141.75
2022-10-09T07:28:48.404Z,102143.44
2022-10-09T07:30:19.860Z,102138.06
2022-10-09T07:31:51.471Z,102137.09
2022-10-09T07:33:22.945Z,102135.28
2022-10-09T07:34:54.453Z,102141.38
2022-10-09T07:36:26.211Z,102137.81
2022-10-09T07:37:59.093Z,102138.59
2022-10-09T07:39:30.897Z,102131.50
2022-10-09T07:41:03.232Z,102123.56
2022-10-09T07:42:34.709Z,102120.00
2022-10-09T07:44:06.242Z,102124.34
2022-10-09T07:45:37.662Z,102118.09
2022-10-09T07:47:09.100Z,102121.56
2022-10-09T07:48:40.926Z,102120.66
2022-10-09T07:50:12.486Z,102121.41
2022-10-09T07:51:43.980Z,102116.06
2022-10-09T07:53:16.860Z,102115.13
2022-10-09T07:54:48.373Z,102124.72
2022-10-09T07:56:20.882Z,102120.28
2022-10-09T07:57:52.598Z,102120.25
2022-10-09T07:59:24.196Z,102120.19
2022-10-09T08:00:55.727Z,102120.94
2022-10-09T08:02:27.227Z,102123.56
2022-10-09T08:03:59.852Z,102110.41
2022-10-09T08:05:31.353Z,102121.81
2022-10-09T08:07:02.857Z,102122.63
2022-10-09T08:08:35.793Z,102132.16
2022-10-09T08:10:07.681Z,102119.81
2022-10-09T08:11:40.650Z,102117.97
2022-10-09T08:13:12.256Z,102121.38
2022-10-09T08:14:43.930Z,102123.91
2022-10-09T08:16:15.761Z,102123.88
2022-10-09T08:17:47.457Z,102122.88
2022-10-09T08:19:18.929Z,102113.06
2022-10-09T08:20:57.879Z,102125.19
2022-10-09T08:22:29.380Z,102119.00
2022-10-09T08:24:02.201Z,102120.69
2022-10-09T08:25:34.355Z,102113.47
2022-10-09T08:27:06.188Z,102117.63
2022-10-09T08:28:37.754Z,102114.91
2022-10-09T08:30:09.478Z,102107.81
2022-10-09T08:31:41.096Z,102116.44
2022-10-09T08:33:12.732Z,102105.69
2022-10-09T08:34:44.202Z,102102.06
2022-10-09T08:36:16.100Z,102105.53
2022-10-09T08:37:47.558Z,102109.81
2022-10-09T08:39:20.424Z,102104.34
2022-10-09T08:40:58.141Z,102097.94
2022-10-09T08:42:32.219Z,102098.69
2022-10-09T08:44:06.180Z,102092.34
2022-10-09T08:45:39.207Z,102097.47
2022-10-09T08:47:15.624Z,102097.19
2022-10-09T08:48:48.428Z,102101.41
2022-10-09T08:50:23.859Z,102097.66
2022-10-09T08:51:57.675Z,102093.03
2022-10-09T08:53:34.713Z,102088.47
2022-10-09T08:55:13.072Z,102094.44
2022-10-09T08:56:45.232Z,102095.06
2022-10-09T08:58:18.259Z,102091.22
2022-10-09T08:59:49.691Z,102086.53
2022-10-09T09:01:26.035Z,102083.66
2022-10-09T09:03:06.555Z,102084.31
2022-10-09T09:04:45.095Z,102081.47
2022-10-09T09:06:22.343Z,102087.44
2022-10-09T09:07:56.491Z,102070.50
2022-10-09T09:09:34.531Z,102073.88
2022-10-09T09:11:16.072Z,102071.38
2022-10-09T09:12:52.887Z,102074.06
2022-10-09T09:14:31.387Z,102068.78
2022-10-09T09:16:08.879Z,102068.00
2022-10-09T09:17:44.060Z,102060.88
2022-10-09T09:19:33.840Z,102062.66
2022-10-09T09:21:13.304Z,102064.44
2022-10-09T09:22:47.614Z,102057.19
2022-10-09T09:24:20.029Z,102058.84
2022-10-09T09:25:51.500Z,102058.63
2022-10-09T09:27:27.476Z,102052.09
2022-10-09T09:29:01.660Z,102043.91
2022-10-09T09:30:35.774Z,102047.38
2022-10-09T09:32:14.380Z,102042.13
2022-10-09T09:33:52.825Z,102038.63
2022-10-09T09:35:27.290Z,102036.00
2022-10-09T09:36:59.125Z,102041.88
2022-10-09T09:38:30.644Z,102030.50
2022-10-09T09:41:55.613Z,102029.03
2022-10-09T09:43:28.505Z,102037.69
2022-10-09T09:45:02.442Z,102032.22
2022-10-09T09:46:34.037Z,102032.03
2022-10-09T09:48:06.793Z,102034.47
2022-10-09T09:49:38.320Z,102028.13
2022-10-09T09:51:28.040Z,102026.97
2022-10-09T09:53:07.723Z,102035.63
2022-10-09T09:54:39.380Z,102021.47
2022-10-09T09:56:11.022Z,102034.63
2022-10-09T09:57:43.537Z,102019.69
2022-10-09T09:59:33.827Z,102020.59
2022-10-09T10:01:06.660Z,102015.13
2022-10-09T10:02:38.185Z,102007.97
2022-10-09T10:04:19.038Z,102006.78
2022-10-09T10:05:51.691Z,102004.69
2022-10-09T10:07:29.942Z,102006.25
2022-10-09T10:09:02.143Z,101998.34
2022-10-09T10:10:33.617Z,101995.41
2022-10-09T10:12:06.507Z,101991.66
2022-10-09T10:13:39.152Z,101992.41
2022-10-09T10:15:23.277Z,101987.84
2022-10-09T10:16:55.569Z,101982.47
2022-10-09T10:18:28.759Z,101988.75
2022-10-09T10:20:05.121Z,101985.06
2022-10-09T10:21:40.378Z,101980.59
2022-10-09T10:23:22.327Z,101979.84
2022-10-09T10:24:56.433Z,101980.59
2022-10-09T10:26:29.828Z,101976.91
2022-10-09T10:28:03.898Z,101980.25
2022-10-09T10:29:37.003Z,101971.31
2022-10-09T10:31:18.570Z,101973.75
2022-10-09T10:32:54.793Z,101966.16
2022-10-09T10:34:27.849Z,101968.16
2022-10-09T10:35:59.779Z,101960.31
2022-10-09T10:37:33.406Z,101962.84
2022-10-09T10:39:09.396Z,101953.09
2022-10-09T10:40:43.038Z,101953.00
2022-10-09T10:42:19.142Z,101950.56
2022-10-09T10:43:51.446Z,101948.88
2022-10-09T10:45:26.897Z,101952.19
2022-10-09T10:47:03.641Z,101948.31
2022-10-09T10:48:37.828Z,101941.16
2022-10-09T10:50:12.379Z,101937.72
2022-10-09T10:51:50.319Z,101944.84
2022-10-09T10:53:26.029Z,101934.50
2022-10-09T10:54:59.915Z,101932.47
2022-10-09T10:56:33.924Z,101933.78
2022-10-09T10:58:11.839Z,101931.69
2022-10-09T10:59:49.975Z,101925.25
2022-10-09T11:01:26.985Z,101929.41
2022-10-09T11:03:06.310Z,101916.09
2022-10-09T11:04:42.360Z,101912.44
2022-10-09T11:06:16.600Z,101917.59
2022-10-09T11:07:55.510Z,101916.84
2022-10-09T11:09:32.406Z,101903.63
2022-10-09T11:11:08.772Z,101907.09
2022-10-09T11:12:48.209Z,101908.13
2022-10-09T11:14:32.208Z,101900.97
2022-10-09T11:16:14.464Z,101897.19
2022-10-09T11:17:50.044Z,101892.56
2022-10-09T11:19:32.888Z,101895.09
2022-10-09T11:21:18.435Z,101890.66
2022-10-09T11:22:58.807Z,101880.22
2022-10-09T11:24:40.581Z,101889.81
2022-10-09T11:26:20.037Z,101878.09
2022-10-09T11:27:53.687Z,101878.84
2022-10-09T11:29:29.664Z,101874.41
2022-10-09T11:31:04.299Z,101870.72
2022-10-09T11:32:38.645Z,101871.31
2022-10-09T11:34:12.270Z,101875.69
2022-10-09T11:35:49.522Z,101869.72
2022-10-09T11:37:23.434Z,101861.88
2022-10-09T11:38:58.469Z,101853.91
2022-10-09T11:40:32.178Z,101862.81
2022-10-09T11:42:05.027Z,101861.81
2022-10-09T11:43:42.671Z,101853.75
2022-10-09T11:45:19.853Z,101848.16
2022-10-09T11:46:54.423Z,101849.94
2022-10-09T11:48:30.496Z,101842.78
2022-10-09T11:50:23.300Z,101850.56
2022-10-09T11:51:59.881Z,101845.31
2022-10-09T11:53:34.506Z,101841.78
2022-10-09T11:55:16.230Z,101841.72
2022-10-09T11:56:54.935Z,101831.19
2022-10-09T11:58:26.464Z,101827.72
2022-10-09T12:00:06.125Z,101832.22
2022-10-09T12:01:39.484Z,101830.66
2022-10-09T12:03:23.233Z,101818.16
2022-10-09T12:04:55.604Z,101819.88
2022-10-09T12:06:27.925Z,101807.41
2022-10-09T12:08:08.165Z,101811.72
2022-10-09T12:09:41.581Z,101809.53
2022-10-09T12:11:14.256Z,101810.25
2022-10-09T12:12:55.450Z,101800.56
2022-10-09T12:14:28.790Z,101808.34
2022-10-09T12:16:00.386Z,101790.63
2022-10-09T12:17:34.357Z,101800.25
2022-10-09T12:19:14.250Z,101785.31
2022-10-09T12:20:47.978Z,101786.97
2022-10-09T12:22:21.298Z,101788.41
2022-10-09T12:23:54.710Z,101774.88
2022-10-09T12:25:30.380Z,101783.41
2022-10-09T12:27:03.257Z,101772.59
2022-10-09T12:28:36.396Z,101764.38
2022-10-09T12:30:17.645Z,101786.00
2022-10-09T12:31:50.686Z,101767.88
2022-10-09T12:33:24.075Z,101770.13
2022-10-09T12:34:56.490Z,101773.00
2022-10-09T12:36:28.861Z,101766.94
2022-10-09T12:38:00.333Z,101755.63
2022-10-09T12:39:33.778Z,101752.13
2022-10-09T12:41:07.106Z,101753.28
2022-10-09T12:42:38.754Z,101751.72
2022-10-09T12:44:18.026Z,101742.06
2022-10-09T12:45:50.963Z,101738.69
2022-10-09T12:47:23.357Z,101730.03
2022-10-09T12:48:54.891Z,101737.38
2022-10-09T12:50:27.353Z,101734.91
2022-10-09T12:51:59.891Z,101735.31
2022-10-09T12:53:31.333Z,101728.53
2022-10-09T12:55:15.396Z,101727.06
2022-10-09T12:56:48.036Z,101722.97
2022-10-09T12:58:21.418Z,101724.94
2022-10-09T12:59:53.018Z,101714.69
2022-10-09T13:01:25.468Z,101713.22
2022-10-09T13:02:57.225Z,101719.91
2022-10-09T13:04:30.189Z,101711.81
2022-10-09T13:06:02.303Z,101710.25
2022-10-09T13:07:35.647Z,101697.94
2022-10-09T13:09:07.983Z,101701.97
2022-10-09T13:10:40.872Z,101693.31
2022-10-09T13:12:16.318Z,101694.41
2022-10-09T13:13:48.713Z,101698.78
2022-10-09T13:15:27.370Z,101694.63
2022-10-09T13:16:58.920Z,101694.91
2022-10-09T13:18:30.805Z,101687.78
2022-10-09T13:20:04.280Z,101689.22
2022-10-09T13:21:35.855Z,101677.53
2022-10-09T13:23:07.436Z,101682.44
2022-10-09T13:24:38.862Z,101670.56
2022-10-09T13:26:14.405Z,101674.88
2022-10-09T13:27:45.916Z,101671.56
2022-10-09T13:29:17.352Z,101664.66
2022-10-09T13:30:49.024Z,101666.31
2022-10-09T13:32:20.982Z,101656.88
2022-10-09T13:33:52.433Z,101662.03
2022-10-09T13:35:23.950Z,101656.28
2022-10-09T13:36:56.420Z,101660.69
2022-10-09T13:38:31.401Z,101652.69
2022-10-09T13:40:06.032Z,101645.41
2022-10-09T13:41:38.861Z,101647.09
2022-10-09T13:43:14.946Z,101646.44
2022-10-09T13:44:46.441Z,101642.88
2022-10-09T13:46:17.901Z,101644.44
2022-10-09T13:47:49.740Z,101644.69
2022-10-09T13:49:21.417Z,101638.84
2022-10-09T13:50:52.929Z,101632.72
2022-10-09T13:52:24.395Z,101629.56
2022-10-09T13:53:55.918Z,101632.03
2022-10-09T13:55:27.348Z,101632.03
2022-10-09T13:57:00.928Z,101619.25
2022-10-09T13:58:32.373Z,101624.50
2022-10-09T14:00:04.432Z,101637.44
2022-10-09T14:01:43.595Z,101622.91
2022-10-09T14:03:16.467Z,101622.00
2022-10-09T14:04:47.931Z,101619.38
2022-10-09T14:06:19.417Z,101612.28
2022-10-09T14:07:51.134Z,101614.03
2022-10-09T14:09:23.018Z,101608.88
2022-10-09T14:10:54.526Z,101600.34
2022-10-09T14:12:27.424Z,101606.97
2022-10-09T14:13:59.508Z,101605.41
2022-10-09T14:15:31.035Z,101607.91
2022-10-09T14:17:02.543Z,101605.44
2022-10-09T14:18:34.253Z,101594.06
2022-10-09T14:20:06.642Z,101585.81
2022-10-09T14:21:38.134Z,101584.19
2022-10-09T14:23:09.703Z,101585.97
2022-10-09T14:24:41.204Z,101583.72
2022-10-09T14:26:12.788Z,101590.84
2022-10-09T14:27:45.619Z,101587.38
2022-10-09T14:29:17.052Z,101591.22
2022-10-09T14:30:48.497Z,101583.88
2022-10-09T14:32:20.004Z,101581.00
2022-10-09T14:33:55.065Z,101575.78
2022-10-09T14:35:26.533Z,101577.78
2022-10-09T14:36:58.119Z,101577.13
2022-10-09T14:38:29.568Z,101571.88
2022-10-09T14:40:01.111Z,101569.31
2022-10-09T14:41:37.471Z,101563.19
2022-10-09T14:43:11.210Z,101556.22
2022-10-09T14:44:42.737Z,101556.41
2022-10-09T14:46:16.868Z,101561.09
2022-10-09T14:47:48.343Z,101552.69
2022-10-09T14:49:21.467Z,101559.13
2022-10-09T14:50:52.935Z,101554.19
2022-10-09T14:52:24.501Z,101543.94
2022-10-09T14:53:56.117Z,101546.91
2022-10-09T14:55:27.593Z,101554.25
2022-10-09T14:56:59.085Z,101548.59
2022-10-09T14:58:32.405Z,101545.25
2022-10-09T15:00:04.306Z,101542.75
2022-10-09T15:01:35.929Z,101539.31
2022-10-09T15:03:07.360Z,101538.72
2022-10-09T15:04:39.099Z,101536.34
2022-10-09T15:06:11.365Z,101539.19
2022-10-09T15:07:42.850Z,101536.88
2022-10-09T15:09:14.347Z,101535.53
2022-10-09T15:10:45.881Z,101531.69
2022-10-09T15:12:17.370Z,101530.31
2022-10-09T15:13:50.239Z,101526.44
2022-10-09T15:15:21.703Z,101536.16
2022-10-09T15:16:53.242Z,101529.19
2022-10-09T15:18:24.733Z,101528.09
2022-10-09T15:19:56.268Z,101520.09
2022-10-09T15:21:28.577Z,101519.56
2022-10-09T15:23:00.116Z,101517.00
2022-10-09T15:24:31.562Z,101505.56
2022-10-09T15:26:03.632Z,101509.25
2022-10-09T15:27:35.057Z,101507.38
2022-10-09T15:29:08.182Z,101503.97
2022-10-09T15:30:43.688Z,101504.78
2022-10-09T15:32:15.168Z,101500.69
2022-10-09T15:33:46.735Z,101495.38
2022-10-09T15:35:18.223Z,101505.16
2022-10-09T15:36:49.689Z,101497.31
2022-10-09T15:38:22.173Z,101500.22
2022-10-09T15:39:53.616Z,101495.50
2022-10-09T15:41:28.725Z,101492.06
2022-10-09T15:43:00.226Z,101488.81
2022-10-09T15:44:33.104Z,101490.78
2022-10-09T15:46:04.617Z,101480.16
2022-10-09T15:47:50.506Z,101478.41
2022-10-09T15:49:22.858Z,101483.03
2022-10-09T15:50:54.322Z,101471.53
2022-10-09T15:52:25.800Z,101469.81
2022-10-09T15:53:58.425Z,101470.59
2022-10-09T15:55:29.860Z,101468.25
2022-10-09T15:57:01.306Z,101463.19
2022-10-09T15:58:32.845Z,101465.06
2022-10-09T16:00:06.726Z,101467.97
2022-10-09T16:01:38.346Z,101453.38
2022-10-09T16:03:10.944Z,101461.44
2022-10-09T16:04:42.517Z,101462.53
2022-10-09T16:06:14.976Z,101462.88
2022-10-09T16:07:46.464Z,101446.28
2022-10-09T16:09:17.996Z,101452.56
2022-10-09T16:10:51.805Z,101447.38
2022-10-09T16:12:23.263Z,101453.66
2022-10-09T16:13:55.808Z,101453.84
2022-10-09T16:15:28.930Z,101441.88
2022-10-09T16:17:00.458Z,101446.41
2022-10-09T16:18:31.995Z,101450.94
2022-10-09T16:20:03.864Z,101450.94
2022-10-09T16:21:35.309Z,101447.34
2022-10-09T16:23:07.352Z,101448.38
2022-10-09T16:24:38.840Z,101446.75
2022-10-09T16:26:10.997Z,101442.44
2022-10-09T16:27:42.891Z,101446.09
2022-10-09T16:29:14.582Z,101443.44
2022-10-09T16:30:47.383Z,101442.59
2022-10-09T16:32:18.876Z,101442.50
2022-10-09T16:33:50.471Z,101436.41
2022-10-09T16:35:22.321Z,101440.00
2022-10-09T16:36:53.762Z,101431.19
2022-10-09T16:38:25.182Z,101431.19
2022-10-09T16:39:56.705Z,101435.63
2022-10-09T16:41:28.195Z,101434.00
2022-10-09T16:43:02.796Z,101426.09
2022-10-09T16:44:34.260Z,101432.38
2022-10-09T16:46:15.701Z,101432.44
2022-10-09T16:47:48.498Z,101426.28
2022-10-09T16:49:22.912Z,101427.28
2022-10-09T16:50:56.542Z,101430.97
2022-10-09T16:52:30.853Z,101431.97
2022-10-09T16:54:03.804Z,101426.91
2022-10-09T16:55:35.683Z,101425.31
2022-10-09T16:57:07.258Z,101425.47
2022-10-09T16:58:38.852Z,101421.09
2022-10-09T17:00:10.887Z,101430.06
2022-10-09T17:01:45.204Z,101427.41
2022-10-09T17:03:16.648Z,101423.97
2022-10-09T17:04:48.137Z,101426.81
2022-10-09T17:06:19.817Z,101423.44
2022-10-09T17:07:51.951Z,101427.19
2022-10-09T17:09:23.720Z,101424.00
2022-10-09T17:10:55.459Z,101431.16
2022-10-09T17:12:26.933Z,101430.38
2022-10-09T17:13:59.107Z,101422.56
2022-10-09T17:15:30.896Z,101430.66
2022-10-09T17:17:03.905Z,101423.72
2022-10-09T17:18:35.792Z,101428.50
2022-10-09T17:20:07.800Z,101427.78
2022-10-09T17:21:39.342Z,101432.38
2022-10-09T17:23:10.825Z,101425.41
2022-10-09T17:24:42.369Z,101425.72
2022-10-09T17:26:14.765Z,101422.34
2022-10-09T17:27:46.252Z,101428.72
2022-10-09T17:29:17.741Z,101428.13
2022-10-09T17:30:49.201Z,101424.81
2022-10-09T17:32:22.601Z,101424.09
2022-10-09T17:33:54.657Z,101422.53
2022-10-09T17:35:26.092Z,101427.06
2022-10-09T17:36:57.529Z,101425.41
2022-10-09T17:38:28.980Z,101430.84
2022-10-09T17:40:00.537Z,101431.91
2022-10-09T17:41:32.046Z,101429.41
2022-10-09T17:43:03.499Z,101433.06
2022-10-09T17:44:35.106Z,101432.25
2022-10-09T17:46:06.869Z,101429.81